Time;durP1;ratioP1;P1;durP2;ratioP2;P2;SDS_P1;SDS_P2;PMS_P1;PMS_P2;Temp;Humidity;BMP_temperature;BMP_pressure;BME280_temperature;BME280_humidity;BME280_pressure;Samples;Min_cycle;Max_cycle;Signal;HPM_P1;HPM_P2
2022/07/18 00:00:07;;;;;;;5.80;2.60;;;19.50;99.90;;;;;;5073605;28;20586;-70
2022/07/18 00:02:33;;;;;;;3.53;2.03;;;19.40;99.90;;;;;;5073662;28;20574;-70
2022/07/18 00:05:00;;;;;;;2.63;2.30;;;19.30;99.90;;;;;;5073374;28;20567;-70
2022/07/18 00:07:26;;;;;;;2.17;1.97;;;19.30;99.90;;;;;;5073168;28;20622;-71
2022/07/18 00:09:53;;;;;;;2.13;2.03;;;19.20;99.90;;;;;;5054863;28;20618;-71
2022/07/18 00:12:20;;;;;;;3.13;1.70;;;19.10;99.90;;;;;;5073269;28;20581;-71
2022/07/18 00:14:46;;;;;;;2.30;2.20;;;18.90;99.90;;;;;;5072879;28;20670;-71
2022/07/18 00:17:13;;;;;;;7.70;2.40;;;18.90;99.90;;;;;;5072719;28;20676;-71
2022/07/18 00:19:39;;;;;;;3.53;1.77;;;18.90;99.90;;;;;;5073304;28;20668;-71
2022/07/18 00:22:06;;;;;;;2.30;2.17;;;18.70;99.90;;;;;;5073184;28;20593;-71
2022/07/18 00:24:33;;;;;;;5.67;1.93;;;18.50;99.90;;;;;;5073289;28;20638;-71
2022/07/18 00:27:00;;;;;;;6.77;2.10;;;18.30;99.90;;;;;;5073514;28;20939;-71
2022/07/18 00:29:27;;;;;;;2.47;2.27;;;18.00;99.90;;;;;;5073068;28;20590;-71
2022/07/18 00:31:53;;;;;;;2.37;2.20;;;17.90;99.90;;;;;;5072835;28;20629;-71
2022/07/18 00:34:20;;;;;;;3.30;3.00;;;18.00;99.90;;;;;;5073101;28;20998;-71
2022/07/18 00:36:46;;;;;;;2.60;2.50;;;18.10;99.90;;;;;;5054383;28;20606;-70
2022/07/18 00:39:13;;;;;;;2.33;2.13;;;18.10;99.90;;;;;;5072570;28;20707;-70
2022/07/18 00:41:39;;;;;;;2.87;2.57;;;18.00;99.90;;;;;;5073007;28;20581;-70
2022/07/18 00:44:15;;;;;;;3.73;2.47;;;18.10;99.90;;;;;;5075393;28;20928;-70
2022/07/18 00:46:41;;;;;;;3.00;2.20;;;18.00;99.90;;;;;;5076851;28;20578;-70
2022/07/18 00:49:08;;;;;;;2.27;2.17;;;18.00;99.90;;;;;;5076154;28;20583;-71
2022/07/18 00:51:36;;;;;;;11.53;2.50;;;18.00;99.90;;;;;;5075865;28;20641;-70
2022/07/18 00:54:03;;;;;;;2.40;2.03;;;18.10;99.90;;;;;;5075646;28;20665;-71
2022/07/18 00:56:30;;;;;;;2.83;2.17;;;18.00;99.90;;;;;;5058417;28;21105;-71
2022/07/18 00:58:56;;;;;;;2.47;2.37;;;17.90;99.90;;;;;;5076229;28;20636;-71
2022/07/18 01:04:20;;;;;;;2.80;2.30;;;17.90;99.90;;;;;;5077277;28;20669;-70
2022/07/18 01:06:48;;;;;;;2.50;2.20;;;17.90;99.90;;;;;;5077877;28;20683;-71
2022/07/18 01:09:17;;;;;;;3.63;2.43;;;17.70;99.90;;;;;;5077235;28;20627;-71
2022/07/18 01:11:46;;;;;;;2.63;2.03;;;17.60;99.90;;;;;;5077183;28;20625;-70
2022/07/18 01:14:13;;;;;;;3.87;2.67;;;17.50;99.90;;;;;;5077610;28;21239;-70
2022/07/18 01:16:40;;;;;;;3.77;2.30;;;17.40;99.90;;;;;;5077045;28;20935;-70
2022/07/18 01:19:06;;;;;;;3.00;2.20;;;17.30;99.90;;;;;;5076016;28;21147;-70
2022/07/18 01:21:33;;;;;;;1.97;1.87;;;17.30;99.90;;;;;;5077384;28;20578;-71
2022/07/18 01:23:59;;;;;;;2.60;2.17;;;17.20;99.90;;;;;;5059629;28;21186;-71
2022/07/18 01:26:26;;;;;;;2.90;2.10;;;17.00;99.90;;;;;;5077304;28;21108;-71
2022/07/18 01:28:52;;;;;;;2.10;2.00;;;16.80;99.90;;;;;;5077067;28;20583;-70
2022/07/18 01:31:19;;;;;;;2.67;2.47;;;16.80;99.90;;;;;;5077137;28;20554;-71
2022/07/18 01:33:46;;;;;;;2.27;2.17;;;16.80;99.90;;;;;;5076400;28;20722;-71
2022/07/18 01:36:12;;;;;;;2.30;2.20;;;16.70;99.90;;;;;;5076383;28;20961;-70
2022/07/18 01:38:39;;;;;;;3.07;2.13;;;16.70;99.90;;;;;;5076705;28;20621;-71
2022/07/18 01:41:05;;;;;;;1.83;1.73;;;16.80;99.90;;;;;;5075928;28;21048;-70
2022/07/18 01:43:33;;;;;;;1.93;1.83;;;16.50;99.90;;;;;;5058636;28;20677;-70
2022/07/18 01:46:01;;;;;;;1.90;1.80;;;16.40;99.90;;;;;;5076430;28;20720;-70
2022/07/18 01:48:28;;;;;;;1.60;1.50;;;16.30;99.90;;;;;;5076152;28;20614;-70
2022/07/18 01:50:54;;;;;;;3.00;2.10;;;16.20;99.90;;;;;;5076246;28;20607;-71
2022/07/18 01:53:21;;;;;;;3.63;2.10;;;16.10;99.90;;;;;;5076522;28;20768;-71
2022/07/18 01:55:47;;;;;;;2.60;1.80;;;16.10;99.90;;;;;;5074625;28;20622;-71
2022/07/18 01:58:14;;;;;;;3.00;2.23;;;16.20;99.90;;;;;;5076593;28;20595;-70
2022/07/18 02:00:40;;;;;;;2.47;2.03;;;16.30;99.90;;;;;;5074342;28;20622;-71
2022/07/18 02:03:07;;;;;;;3.47;1.63;;;16.40;99.90;;;;;;5073935;28;20622;-71
2022/07/18 02:05:33;;;;;;;1.90;1.80;;;16.60;99.90;;;;;;5075844;28;20631;-71
2022/07/18 02:07:59;;;;;;;2.40;1.80;;;16.70;99.90;;;;;;5075606;28;20594;-71
2022/07/18 02:10:26;;;;;;;1.60;1.50;;;16.80;99.90;;;;;;5075326;28;20609;-71
2022/07/18 02:12:53;;;;;;;2.53;1.70;;;16.80;99.90;;;;;;5056658;28;20623;-71
2022/07/18 02:15:19;;;;;;;2.30;1.77;;;16.80;99.90;;;;;;5075741;28;20626;-70
2022/07/18 02:17:46;;;;;;;2.30;2.20;;;16.80;99.90;;;;;;5075425;28;21020;-70
2022/07/18 02:20:14;;;;;;;2.00;1.80;;;16.80;99.90;;;;;;5073959;28;20618;-70
2022/07/18 02:22:41;;;;;;;4.00;2.47;;;16.80;99.90;;;;;;5075718;28;20570;-70
2022/07/18 02:25:08;;;;;;;2.10;1.90;;;16.70;99.90;;;;;;5075240;28;20646;-69
2022/07/18 02:27:35;;;;;;;2.00;1.90;;;16.70;99.90;;;;;;5075280;28;20590;-69
2022/07/18 02:30:01;;;;;;;6.67;2.50;;;16.60;99.90;;;;;;5075490;28;20575;-69
2022/07/18 02:32:28;;;;;;;2.50;2.30;;;16.70;99.90;;;;;;5075244;28;20600;-69
2022/07/18 02:34:54;;;;;;;2.77;2.57;;;16.70;99.90;;;;;;5075214;28;20985;-70
2022/07/18 02:37:21;;;;;;;2.87;2.60;;;16.80;99.90;;;;;;5075164;28;20953;-70
2022/07/18 02:39:47;;;;;;;2.50;2.30;;;16.80;99.90;;;;;;5074465;28;20649;-70
2022/07/18 02:42:13;;;;;;;4.00;2.00;;;16.80;99.90;;;;;;5074750;28;20628;-70
2022/07/18 02:44:40;;;;;;;2.47;2.20;;;16.70;99.90;;;;;;5074555;28;20640;-70
2022/07/18 02:47:07;;;;;;;2.43;1.97;;;16.80;99.90;;;;;;5074808;28;20578;-70
2022/07/18 02:49:33;;;;;;;3.63;1.90;;;16.80;99.90;;;;;;5074294;28;21206;-70
2022/07/18 02:52:06;;;;;;;8.37;2.30;;;16.80;99.90;;;;;;5073805;28;20618;-70
2022/07/18 02:54:34;;;;;;;1.63;1.53;;;16.80;99.90;;;;;;5074069;28;20981;-70
2022/07/18 02:57:01;;;;;;;1.80;1.70;;;16.70;99.90;;;;;;5074377;28;20570;-70
2022/07/18 02:59:27;;;;;;;7.00;2.10;;;16.60;99.90;;;;;;5074474;28;20656;-70
2022/07/18 03:01:55;;;;;;;3.10;2.07;;;16.60;99.90;;;;;;5074043;28;20582;-70
2022/07/18 03:04:22;;;;;;;2.17;2.03;;;16.60;99.90;;;;;;5055980;28;20694;-70
2022/07/18 03:06:49;;;;;;;2.47;2.30;;;16.60;99.90;;;;;;5074767;28;20574;-70
2022/07/18 03:09:16;;;;;;;2.00;1.90;;;16.60;99.90;;;;;;5074311;28;20644;-71
2022/07/18 03:11:43;;;;;;;2.37;2.20;;;16.50;99.90;;;;;;5073969;28;20971;-70
2022/07/18 03:14:09;;;;;;;2.30;2.00;;;16.60;99.90;;;;;;5074443;28;20640;-70
2022/07/18 03:16:36;;;;;;;1.93;1.83;;;16.50;99.90;;;;;;5073730;28;21117;-70
2022/07/18 03:19:03;;;;;;;2.93;1.80;;;16.40;99.90;;;;;;5073094;28;21173;-70
2022/07/18 03:21:29;;;;;;;2.63;2.43;;;16.40;99.90;;;;;;5073293;28;21190;-70
2022/07/18 03:23:56;;;;;;;4.20;2.10;;;16.40;99.90;;;;;;5073451;28;21197;-70
2022/07/18 03:26:23;;;;;;;3.00;2.40;;;16.30;99.90;;;;;;5073878;28;20594;-70
2022/07/18 03:28:49;;;;;;;2.93;2.20;;;16.40;99.90;;;;;;5073263;28;21109;-70
2022/07/18 03:31:16;;;;;;;2.10;1.90;;;16.30;99.90;;;;;;5054904;28;20615;-70
2022/07/18 03:33:42;;;;;;;2.50;2.23;;;16.20;99.90;;;;;;5055402;28;20658;-70
2022/07/18 03:36:09;;;;;;;1.97;1.87;;;16.20;99.90;;;;;;5073455;28;20578;-70
2022/07/18 03:38:36;;;;;;;3.93;2.23;;;16.20;99.90;;;;;;5073357;28;20597;-70
2022/07/18 03:41:03;;;;;;;2.03;1.93;;;16.20;99.90;;;;;;5071785;28;20735;-70
2022/07/18 03:43:30;;;;;;;2.10;1.90;;;16.20;99.90;;;;;;5072251;28;20620;-70
2022/07/18 03:45:57;;;;;;;3.53;1.90;;;16.20;99.90;;;;;;5071457;28;20618;-70
2022/07/18 03:48:23;;;;;;;2.13;1.93;;;16.10;99.90;;;;;;5073006;28;21174;-70
2022/07/18 03:50:50;;;;;;;3.93;2.63;;;16.00;99.90;;;;;;5072445;28;21187;-70
2022/07/18 03:53:16;;;;;;;3.20;2.20;;;16.10;99.90;;;;;;5055582;28;20582;-70
2022/07/18 03:55:43;;;;;;;3.00;1.80;;;16.20;99.90;;;;;;5073124;28;20614;-70
2022/07/18 03:58:09;;;;;;;5.83;2.10;;;16.30;99.90;;;;;;5072987;28;21143;-70
2022/07/18 04:00:36;;;;;;;3.00;2.07;;;16.40;99.90;;;;;;5073270;28;20587;-70
2022/07/18 04:03:03;;;;;;;10.10;2.40;;;16.30;99.90;;;;;;5072881;28;21195;-70
2022/07/18 04:05:29;;;;;;;3.67;2.53;;;16.50;99.90;;;;;;5038287;28;21174;-70
2022/07/18 04:07:56;;;;;;;3.13;2.53;;;16.80;99.90;;;;;;5072549;28;20575;-69
2022/07/18 04:10:22;;;;;;;3.17;2.87;;;17.00;99.90;;;;;;5073129;28;21007;-70
2022/07/18 04:12:51;;;;;;;2.97;2.20;;;17.30;99.90;;;;;;5038165;28;21063;-69
2022/07/18 04:15:20;;;;;;;5.20;2.60;;;17.40;99.90;;;;;;5072109;28;20669;-69
2022/07/18 04:17:47;;;;;;;6.57;2.47;;;17.50;99.90;;;;;;5073338;28;20575;-70
2022/07/18 04:20:15;;;;;;;4.03;2.50;;;17.50;99.90;;;;;;5075702;28;20961;-70
2022/07/18 04:22:46;;;;;;;2.83;2.57;;;17.60;99.90;;;;;;5076404;28;20673;-69
2022/07/18 04:25:13;;;;;;;3.20;2.30;;;17.70;99.90;;;;;;5076308;28;20649;-69
2022/07/18 04:27:39;;;;;;;4.90;2.47;;;17.70;99.90;;;;;;5075710;28;20622;-69
2022/07/18 04:30:07;;;;;;;4.33;2.90;;;17.80;99.90;;;;;;5075716;28;21237;-69
2022/07/18 04:32:34;;;;;;;5.13;2.73;;;17.80;99.90;;;;;;5076208;28;20578;-69
2022/07/18 04:35:00;;;;;;;3.13;2.83;;;17.90;99.90;;;;;;5076454;28;20637;-71
2022/07/18 04:37:30;;;;;;;4.23;3.00;;;17.90;99.90;;;;;;5076187;28;21131;-68
2022/07/18 04:39:58;;;;;;;4.50;2.80;;;17.80;99.90;;;;;;5075658;28;21191;-70
2022/07/18 04:42:25;;;;;;;4.47;2.97;;;17.90;99.90;;;;;;5058195;28;20610;-70
2022/07/18 04:44:52;;;;;;;2.87;2.67;;;17.90;99.90;;;;;;5076445;28;20610;-70
2022/07/18 04:47:18;;;;;;;4.00;2.60;;;18.00;99.90;;;;;;5076497;28;20581;-70
2022/07/18 04:49:45;;;;;;;8.23;2.97;;;18.10;99.90;;;;;;5057298;28;20622;-70
2022/07/18 04:52:11;;;;;;;10.80;3.70;;;18.30;99.90;;;;;;5076421;28;20595;-70
2022/07/18 04:54:38;;;;;;;3.47;3.17;;;18.40;99.90;;;;;;5074625;28;20665;-70
2022/07/18 04:57:04;;;;;;;5.43;2.60;;;18.50;99.90;;;;;;5076126;28;20589;-70
2022/07/18 04:59:31;;;;;;;5.33;2.33;;;18.60;99.90;;;;;;5058764;28;20618;-70
2022/07/18 05:01:58;;;;;;;8.03;2.57;;;18.70;99.90;;;;;;5076040;28;20597;-70
2022/07/18 05:04:24;;;;;;;3.47;2.30;;;18.80;99.90;;;;;;5058092;28;20618;-70
2022/07/18 05:06:51;;;;;;;2.70;2.50;;;18.90;99.90;;;;;;5076193;28;20574;-70
2022/07/18 05:09:17;;;;;;;8.80;3.80;;;19.10;99.90;;;;;;5076064;28;20594;-70
2022/07/18 05:11:44;;;;;;;8.20;2.77;;;19.10;99.90;;;;;;5076242;28;20575;-70
2022/07/18 05:14:10;;;;;;;2.57;1.73;;;19.10;99.90;;;;;;5075606;28;21047;-70
2022/07/18 05:16:37;;;;;;;10.33;3.37;;;19.20;99.90;;;;;;5075658;28;21143;-70
2022/07/18 05:19:03;;;;;;;6.20;2.90;;;19.20;99.90;;;;;;5075508;28;21139;-70
2022/07/18 05:21:30;;;;;;;2.20;2.10;;;19.30;99.90;;;;;;5075852;28;20915;-70
2022/07/18 05:23:57;;;;;;;5.90;2.53;;;19.50;99.90;;;;;;5057652;28;20654;-70
2022/07/18 05:26:23;;;;;;;3.83;2.53;;;19.60;99.90;;;;;;5075523;28;20570;-70
2022/07/18 05:28:50;;;;;;;4.33;2.50;;;19.70;99.90;;;;;;5075658;28;20588;-70
2022/07/18 05:31:16;;;;;;;2.60;2.37;;;19.70;99.90;;;;;;5074771;28;20606;-70
2022/07/18 05:33:42;;;;;;;7.57;2.90;;;19.70;99.90;;;;;;5075388;28;20587;-70
2022/07/18 05:36:09;;;;;;;6.77;2.13;;;19.60;99.90;;;;;;5075500;28;20622;-70
2022/07/18 05:38:36;;;;;;;2.30;2.10;;;19.50;99.90;;;;;;5075588;28;20574;-70
2022/07/18 05:41:02;;;;;;;8.63;2.53;;;19.40;99.90;;;;;;5075456;28;20646;-70
2022/07/18 05:43:29;;;;;;;2.90;2.40;;;19.50;99.90;;;;;;5075517;28;20591;-70
2022/07/18 05:45:55;;;;;;;5.13;3.30;;;19.50;99.90;;;;;;5075200;28;20608;-70
2022/07/18 05:48:22;;;;;;;9.13;2.57;;;19.70;99.90;;;;;;5075455;28;20594;-68
2022/07/18 05:50:48;;;;;;;17.27;4.47;;;19.80;99.90;;;;;;5075518;28;20582;-69
2022/07/18 05:53:15;;;;;;;15.17;2.33;;;19.90;99.90;;;;;;5075359;28;20986;-74
2022/07/18 05:55:42;;;;;;;2.50;2.30;;;20.10;99.90;;;;;;5074860;28;20634;-74
2022/07/18 05:58:08;;;;;;;9.87;3.33;;;20.20;99.90;;;;;;5075494;28;20609;-74
2022/07/18 06:00:35;;;;;;;6.23;2.93;;;20.30;99.90;;;;;;5074820;28;20614;-73
2022/07/18 06:03:01;;;;;;;5.87;2.77;;;20.30;99.90;;;;;;5074660;28;20618;-73
2022/07/18 06:05:28;;;;;;;6.87;2.70;;;20.40;99.90;;;;;;5074254;28;20998;-73
2022/07/18 06:07:56;;;;;;;3.10;2.43;;;20.40;99.90;;;;;;5074711;28;20712;-74
2022/07/18 06:10:25;;;;;;;2.50;2.30;;;20.50;99.90;;;;;;5074801;28;20985;-74
2022/07/18 06:12:52;;;;;;;8.60;2.57;;;20.70;99.90;;;;;;5074915;28;20954;-72
2022/07/18 06:15:18;;;;;;;5.37;2.50;;;20.70;99.90;;;;;;5076282;28;21324;-77
2022/07/18 06:17:45;;;;;;;3.67;2.50;;;20.90;99.90;;;;;;5075084;28;20622;-76
2022/07/18 06:20:14;;;;;;;3.10;2.77;;;21.10;99.90;;;;;;5075287;28;20590;-76
2022/07/18 06:22:42;;;;;;;4.93;2.93;;;21.00;99.90;;;;;;5059172;28;20944;-77
2022/07/18 06:25:09;;;;;;;5.77;2.20;;;21.10;99.90;;;;;;5057141;28;20655;-75
2022/07/18 06:27:35;;;;;;;2.90;2.60;;;21.30;99.90;;;;;;5057277;28;20586;-76
2022/07/18 06:30:04;;;;;;;7.43;2.30;;;21.30;99.90;;;;;;5056683;28;20605;-77
2022/07/18 06:32:31;;;;;;;5.30;3.73;;;21.40;99.90;;;;;;5056926;28;20637;-78
2022/07/18 06:34:57;;;;;;;3.13;2.73;;;21.40;99.90;;;;;;5040970;28;21187;-74
2022/07/18 06:37:23;;;;;;;7.43;2.70;;;21.60;99.90;;;;;;5072762;28;20610;-76
2022/07/18 06:39:50;;;;;;;4.80;3.20;;;21.70;99.90;;;;;;5074216;28;20728;-75
2022/07/18 06:42:16;;;;;;;6.43;3.10;;;21.50;99.90;;;;;;5076503;28;20578;-76
2022/07/18 06:44:43;;;;;;;8.53;3.40;;;21.60;99.90;;;;;;5075442;28;20589;-77
2022/07/18 06:47:10;;;;;;;6.60;3.60;;;21.80;99.90;;;;;;5079257;28;21104;-77
2022/07/18 06:49:36;;;;;;;4.93;3.20;;;22.00;99.90;;;;;;5080461;28;20575;-74
2022/07/18 06:52:03;;;;;;;4.03;3.50;;;21.90;99.90;;;;;;5079511;28;20696;-75
2022/07/18 06:54:30;;;;;;;5.33;3.33;;;22.00;99.90;;;;;;5058811;28;20668;-75
2022/07/18 06:56:58;;;;;;;7.43;4.00;;;22.10;99.90;;;;;;5074437;28;20575;-76
2022/07/18 06:59:25;;;;;;;7.27;3.50;;;22.10;99.90;;;;;;5074164;28;20570;-74
2022/07/18 07:01:51;;;;;;;7.27;3.90;;;22.10;99.90;;;;;;5075867;28;20563;-76
2022/07/18 07:04:18;;;;;;;4.10;3.17;;;22.40;99.90;;;;;;5077030;28;20654;-73
2022/07/18 07:06:44;;;;;;;7.10;3.70;;;22.60;99.90;;;;;;5075539;28;20593;-74
2022/07/18 07:09:11;;;;;;;3.87;3.57;;;22.40;99.90;;;;;;5075887;28;20614;-75
2022/07/18 07:11:37;;;;;;;10.10;3.80;;;22.60;99.90;;;;;;5057961;28;21170;-75
2022/07/18 07:14:04;;;;;;;3.70;3.40;;;22.70;99.90;;;;;;5072819;28;20622;-76
2022/07/18 07:16:30;;;;;;;3.90;3.10;;;22.80;99.90;;;;;;5076821;28;20566;-75
2022/07/18 07:18:56;;;;;;;7.43;2.90;;;22.90;99.90;;;;;;5078372;28;20674;-74
2022/07/18 07:21:23;;;;;;;9.30;3.10;;;23.10;99.90;;;;;;5076240;28;20570;-75
2022/07/18 07:23:49;;;;;;;3.70;3.07;;;23.20;99.90;;;;;;5073634;28;21227;-76
2022/07/18 07:26:16;;;;;;;3.33;2.97;;;23.40;99.90;;;;;;5073256;28;20679;-76
2022/07/18 07:28:42;;;;;;;3.27;2.90;;;23.60;99.90;;;;;;5073794;28;20606;-75
2022/07/18 07:31:09;;;;;;;5.80;3.20;;;23.60;99.90;;;;;;5054522;28;20632;-74
2022/07/18 07:33:36;;;;;;;3.13;2.57;;;23.50;99.90;;;;;;5072589;28;21214;-74
2022/07/18 07:36:04;;;;;;;3.47;2.80;;;23.50;99.90;;;;;;5072384;28;20668;-75
2022/07/18 07:38:31;;;;;;;10.93;3.93;;;23.60;99.90;;;;;;5072497;28;20618;-76
2022/07/18 07:41:01;;;;;;;4.27;2.70;;;23.80;99.90;;;;;;5072848;28;20646;-75
2022/07/18 07:43:27;;;;;;;4.53;2.90;;;23.70;99.90;;;;;;5074303;28;21144;-75
2022/07/18 07:45:55;;;;;;;2.60;2.43;;;24.00;99.90;;;;;;5073425;28;20683;-74
2022/07/18 07:48:23;;;;;;;3.80;3.00;;;24.20;99.90;;;;;;5073521;28;21165;-74
2022/07/18 07:50:50;;;;;;;3.23;2.80;;;24.40;99.90;;;;;;5072340;28;20630;-75
2022/07/18 07:53:17;;;;;;;18.77;4.20;;;24.40;99.90;;;;;;5057112;28;20621;-75
2022/07/18 07:55:43;;;;;;;6.40;2.97;;;24.70;99.90;;;;;;5060733;28;20629;-74
2022/07/18 07:58:10;;;;;;;8.33;3.47;;;24.70;99.90;;;;;;5078772;28;20631;-75
2022/07/18 08:00:36;;;;;;;5.80;3.20;;;24.90;99.90;;;;;;5076662;28;20630;-75
2022/07/18 08:03:05;;;;;;;3.17;2.87;;;24.70;99.90;;;;;;5058611;28;20971;-74
2022/07/18 08:05:35;;;;;;;5.83;2.90;;;24.90;99.90;;;;;;5076825;28;20990;-75
2022/07/18 08:08:02;;;;;;;3.10;2.80;;;24.90;99.90;;;;;;5076940;28;20579;-74
2022/07/18 08:10:29;;;;;;;2.73;2.53;;;25.20;99.90;;;;;;5076122;28;20675;-74
2022/07/18 08:12:56;;;;;;;9.10;3.20;;;25.30;99.90;;;;;;5076804;28;20585;-74
2022/07/18 08:15:24;;;;;;;4.20;2.90;;;25.50;99.90;;;;;;5076337;28;20993;-75
2022/07/18 08:17:51;;;;;;;6.90;3.30;;;25.50;99.90;;;;;;5076593;28;20939;-74
2022/07/18 08:20:17;;;;;;;2.97;2.60;;;25.50;99.90;;;;;;5076651;28;20570;-73
2022/07/18 08:23:01;;;;;;;3.57;2.33;;;25.60;99.90;;;;;;5076792;28;20629;-74
2022/07/18 08:25:30;;;;;;;6.93;2.97;;;25.90;99.90;;;;;;5077420;28;20649;-74
2022/07/18 08:27:58;;;;;;;3.90;3.17;;;26.10;99.90;;;;;;5076738;28;20578;-76
2022/07/18 08:30:25;;;;;;;3.57;2.73;;;25.90;99.90;;;;;;5077073;28;20980;-74
2022/07/18 08:32:52;;;;;;;8.40;3.03;;;25.80;99.90;;;;;;5076714;28;20593;-75
2022/07/18 08:35:19;;;;;;;3.77;2.33;;;26.20;99.90;;;;;;5076098;28;20634;-75
2022/07/18 08:37:45;;;;;;;4.30;2.60;;;26.20;99.90;;;;;;5076714;28;20578;-75
2022/07/18 08:40:12;;;;;;;6.10;2.80;;;26.20;99.90;;;;;;5076250;28;20641;-75
2022/07/18 08:42:39;;;;;;;8.50;3.80;;;26.40;99.90;;;;;;5076033;28;20633;-74
2022/07/18 08:45:06;;;;;;;3.57;2.70;;;26.60;99.90;;;;;;5076157;28;21186;-73
2022/07/18 08:47:33;;;;;;;8.20;3.57;;;26.30;99.90;;;;;;5076351;28;20649;-73
2022/07/18 08:50:01;;;;;;;7.73;3.07;;;26.50;99.90;;;;;;5076321;28;20569;-73
2022/07/18 08:52:28;;;;;;;4.67;2.97;;;26.70;99.90;;;;;;5075913;28;21056;-73
2022/07/18 08:54:56;;;;;;;8.20;4.60;;;26.90;99.90;;;;;;5076368;28;20626;-75
2022/07/18 08:57:23;;;;;;;2.93;2.73;;;26.80;99.90;;;;;;5076275;28;20602;-75
2022/07/18 08:59:49;;;;;;;5.90;3.60;;;27.00;99.90;;;;;;5074564;28;20610;-73
2022/07/18 09:02:16;;;;;;;3.30;3.00;;;27.10;99.90;;;;;;5075993;28;20581;-77
2022/07/18 09:04:44;;;;;;;7.20;2.97;;;27.00;99.90;;;;;;5057645;28;21187;-75
2022/07/18 09:07:27;;;;;;;4.43;2.87;;;27.10;99.90;;;;;;5075889;28;20927;-75
2022/07/18 09:09:57;;;;;;;5.97;3.30;;;27.50;99.90;;;;;;5057945;28;20621;-75
2022/07/18 09:12:25;;;;;;;11.80;3.03;;;27.60;99.90;;;;;;5075051;28;20620;-70
2022/07/18 09:14:52;;;;;;;5.57;3.07;;;27.70;99.90;;;;;;5075203;28;20997;-73
2022/07/18 09:17:28;;;;;;;4.27;2.70;;;27.60;99.90;;;;;;5075532;28;20665;-71
2022/07/18 09:20:14;;;;;;;5.97;3.13;;;27.30;99.90;;;;;;5075351;28;20621;-71
2022/07/18 09:22:42;;;;;;;2.67;2.47;;;27.60;99.90;;;;;;5074797;28;20602;-71
2022/07/18 09:25:12;;;;;;;4.23;3.47;;;27.60;99.90;;;;;;5074745;28;21092;-72
2022/07/18 09:27:43;;;;;;;3.07;2.87;;;28.00;99.90;;;;;;5074898;28;20644;-72
2022/07/18 09:30:18;;;;;;;9.00;3.70;;;28.20;99.90;;;;;;5075432;28;20574;-71
2022/07/18 09:32:51;;;;;;;7.40;3.07;;;28.20;99.90;;;;;;5056724;28;20617;-74
2022/07/18 09:35:23;;;;;;;5.30;3.60;;;28.40;99.90;;;;;;5074266;28;20665;-70
2022/07/18 09:38:03;;;;;;;6.43;3.60;;;28.50;99.90;;;;;;5075099;28;20961;-71
2022/07/18 09:40:36;;;;;;;6.40;3.53;;;28.50;99.90;;;;;;5074923;28;20641;-70
2022/07/18 09:43:05;;;;;;;5.43;3.33;;;28.60;99.90;;;;;;5075584;28;20574;-71
2022/07/18 09:45:37;;;;;;;6.10;3.73;;;28.80;99.90;;;;;;5075291;28;20571;-71
2022/07/18 09:48:06;;;;;;;3.83;3.50;;;28.80;99.90;;;;;;5074875;28;20962;-70
2022/07/18 09:50:42;;;;;;;3.20;2.90;;;28.70;99.90;;;;;;5074762;28;20614;-71
2022/07/18 09:53:13;;;;;;;6.23;3.30;;;28.80;99.90;;;;;;5075274;28;20965;-70
2022/07/18 09:55:48;;;;;;;3.80;3.40;;;28.90;99.90;;;;;;5075093;28;20622;-69
2022/07/18 09:58:18;;;;;;;5.67;4.10;;;29.20;99.90;;;;;;5075201;28;20566;-70
2022/07/18 10:00:45;;;;;;;3.70;3.40;;;29.40;99.90;;;;;;5057276;28;20960;-70
2022/07/18 10:03:13;;;;;;;5.63;3.90;;;29.00;99.90;;;;;;5074820;28;20635;-69
2022/07/18 10:05:40;;;;;;;7.70;3.20;;;29.30;99.90;;;;;;5074840;28;21124;-70
2022/07/18 10:08:13;;;;;;;3.93;3.10;;;29.40;99.90;;;;;;5074710;28;20603;-70
2022/07/18 10:10:41;;;;;;;4.37;3.40;;;29.50;99.90;;;;;;5056328;28;20621;-70
2022/07/18 10:13:08;;;;;;;8.90;3.33;;;29.70;99.90;;;;;;5074497;28;20587;-70
2022/07/18 10:15:38;;;;;;;3.40;3.10;;;29.90;99.90;;;;;;5073980;28;20630;-70
2022/07/18 10:18:07;;;;;;;4.87;3.13;;;30.10;99.90;;;;;;5056545;28;20618;-70
2022/07/18 10:20:43;;;;;;;5.63;3.50;;;30.20;99.90;;;;;;5074603;28;20575;-70
2022/07/18 10:23:19;;;;;;;6.53;4.13;;;30.20;99.90;;;;;;5074705;28;20594;-70
2022/07/18 10:26:16;;;;;;;4.70;3.17;;;30.30;99.90;;;;;;5074010;28;21136;-70
2022/07/18 10:28:55;;;;;;;13.30;3.10;;;30.50;99.90;;;;;;5074174;28;20583;-70
2022/07/18 10:31:25;;;;;;;7.70;3.07;;;30.40;99.90;;;;;;5073676;28;20622;-70
2022/07/18 10:33:53;;;;;;;5.90;2.90;;;30.20;99.90;;;;;;5074246;28;21105;-70
2022/07/18 10:36:23;;;;;;;2.87;2.63;;;30.60;99.90;;;;;;5074006;28;21054;-71
2022/07/18 10:39:02;;;;;;;4.50;3.00;;;30.80;99.90;;;;;;5074792;28;20606;-70
2022/07/18 10:41:28;;;;;;;5.20;3.30;;;30.30;99.90;;;;;;5074065;28;21081;-70
2022/07/18 10:43:55;;;;;;;3.30;2.83;;;30.70;99.90;;;;;;5056132;28;20606;-74
2022/07/18 10:46:21;;;;;;;3.40;3.10;;;31.00;99.90;;;;;;5074408;28;20692;-73
2022/07/18 10:48:53;;;;;;;3.70;2.77;;;31.10;99.90;;;;;;5074787;28;20936;-73
2022/07/18 10:51:28;;;;;;;2.87;2.33;;;31.40;99.90;;;;;;5073551;28;20622;-73
2022/07/18 10:54:06;;;;;;;7.90;2.60;;;31.10;99.90;;;;;;5073430;28;21160;-73
2022/07/18 10:56:38;;;;;;;5.47;2.63;;;31.10;99.90;;;;;;5074660;28;20691;-74
2022/07/18 10:59:18;;;;;;;6.00;2.80;;;31.40;99.90;;;;;;5074008;28;20626;-74
2022/07/18 11:01:49;;;;;;;3.20;3.00;;;31.10;99.90;;;;;;5056921;28;20618;-74
2022/07/18 11:04:37;;;;;;;3.60;3.30;;;31.10;99.90;;;;;;5074696;28;20984;-74
2022/07/18 11:07:10;;;;;;;3.00;2.80;;;31.30;99.90;;;;;;5073298;28;20618;-73
2022/07/18 11:09:47;;;;;;;2.60;2.50;;;31.70;99.90;;;;;;5073058;28;20629;-74
2022/07/18 11:12:22;;;;;;;3.20;3.00;;;31.90;99.90;;;;;;5073155;28;20628;-73
2022/07/18 11:15:05;;;;;;;3.10;2.90;;;32.30;99.90;;;;;;5073977;28;20554;-74
2022/07/18 11:17:58;;;;;;;2.70;2.40;;;31.60;99.90;;;;;;5073168;28;20615;-73
2022/07/18 11:20:38;;;;;;;4.23;2.63;;;31.50;99.90;;;;;;5073480;28;20606;-73
2022/07/18 11:23:18;;;;;;;3.37;2.87;;;31.70;99.90;;;;;;5073255;28;20617;-74
2022/07/18 11:25:47;;;;;;;3.57;2.20;;;32.20;99.90;;;;;;5073258;28;20618;-75
2022/07/18 11:28:14;;;;;;;6.83;2.87;;;32.40;99.90;;;;;;5054424;28;21214;-74
2022/07/18 11:30:41;;;;;;;3.07;2.77;;;33.10;99.90;;;;;;5073197;28;20972;-74
2022/07/18 11:33:25;;;;;;;2.93;2.73;;;33.70;99.90;;;;;;5073236;28;21012;-73
2022/07/18 11:35:52;;;;;;;2.97;2.50;;;34.00;99.90;;;;;;5073652;28;20679;-74
2022/07/18 11:38:18;;;;;;;4.50;2.83;;;34.30;99.90;;;;;;5074223;28;20613;-74
2022/07/18 11:40:52;;;;;;;2.80;2.60;;;34.60;99.90;;;;;;5072774;28;20641;-72
2022/07/18 11:43:26;;;;;;;2.40;2.30;;;34.30;99.90;;;;;;5055612;28;21001;-73
2022/07/18 11:46:07;;;;;;;3.33;3.07;;;34.40;99.90;;;;;;5073668;28;20588;-74
2022/07/18 11:48:35;;;;;;;2.90;2.70;;;35.30;99.90;;;;;;5073262;28;20620;-74
2022/07/18 11:51:08;;;;;;;5.87;2.77;;;35.10;99.90;;;;;;5072549;28;20579;-74
2022/07/18 11:53:34;;;;;;;3.10;2.90;;;35.10;99.90;;;;;;5072696;28;20983;-74
2022/07/18 11:56:05;;;;;;;4.00;2.80;;;34.50;99.90;;;;;;5073504;28;20648;-72
2022/07/18 11:58:39;;;;;;;7.60;2.87;;;35.40;99.90;;;;;;5072447;28;20610;-73
2022/07/18 12:01:06;;;;;;;2.73;2.53;;;35.00;99.90;;;;;;5072536;28;21002;-73
2022/07/18 12:03:47;;;;;;;2.60;2.40;;;35.60;99.90;;;;;;5073238;28;20575;-74
2022/07/18 12:06:22;;;;;;;3.30;3.00;;;35.80;99.90;;;;;;5038319;28;20630;-75
2022/07/18 12:08:50;;;;;;;9.70;3.10;;;35.20;99.90;;;;;;5073151;28;20602;-74
2022/07/18 12:11:32;;;;;;;2.73;2.53;;;35.20;99.90;;;;;;5071163;28;20625;-73
2022/07/18 12:14:08;;;;;;;2.63;2.53;;;35.30;99.90;;;;;;5072001;28;20625;-73
2022/07/18 12:16:56;;;;;;;3.07;2.77;;;35.90;99.90;;;;;;5072997;28;20630;-74
2022/07/18 12:19:36;;;;;;;2.97;2.67;;;36.50;99.90;;;;;;5073194;28;20685;-74
2022/07/18 12:22:03;;;;;;;3.53;2.83;;;35.10;99.90;;;;;;5073129;28;20909;-75
2022/07/18 12:24:33;;;;;;;2.80;2.70;;;34.90;99.90;;;;;;5073325;28;20635;-76
2022/07/18 12:27:30;;;;;;;3.30;2.70;;;34.80;99.90;;;;;;5073068;28;20579;-74
2022/07/18 12:30:11;;;;;;;2.87;2.60;;;35.60;99.90;;;;;;5073380;28;20568;-74
2022/07/18 12:32:51;;;;;;;2.60;2.50;;;36.10;99.90;;;;;;5072704;28;20626;-73
2022/07/18 12:35:31;;;;;;;4.17;2.40;;;36.70;99.90;;;;;;5054660;28;20631;-73
2022/07/18 12:38:06;;;;;;;2.70;2.60;;;36.90;99.90;;;;;;5054847;28;20614;-72
2022/07/18 12:41:01;;;;;;;5.53;2.63;;;37.40;99.90;;;;;;5075538;28;20706;-74
2022/07/18 12:43:38;;;;;;;2.70;2.50;;;37.90;99.90;;;;;;5076623;28;20581;-74
2022/07/18 12:46:09;;;;;;;3.00;2.80;;;37.80;99.90;;;;;;5076283;28;20597;-74
2022/07/18 12:48:37;;;;;;;3.20;2.90;;;37.00;99.90;;;;;;5076461;28;20999;-74
2022/07/18 12:51:06;;;;;;;2.93;2.73;;;37.60;99.90;;;;;;5057704;28;20993;-75
2022/07/18 12:53:42;;;;;;;2.80;2.70;;;37.60;99.90;;;;;;5076525;28;20867;-74
2022/07/18 12:56:09;;;;;;;5.33;2.50;;;36.80;99.90;;;;;;5076194;28;20641;-75